createdAt,value
2019-04-10T00:01:07.482Z,7.60
2019-04-10T00:03:37.893Z,7.50
2019-04-10T00:06:05.194Z,7.40
2019-04-10T00:08:34.509Z,7.30
2019-04-10T00:11:03.316Z,7.20
2019-04-10T00:13:32.030Z,7.10
2019-04-10T00:16:00.736Z,7.00
2019-04-10T00:18:29.781Z,7.00
2019-04-10T00:20:58.785Z,6.90
2019-04-10T00:23:27.537Z,7.00
2019-04-10T00:25:59.381Z,7.20
2019-04-10T00:28:28.185Z,7.30
2019-04-10T00:30:57.699Z,7.30
2019-04-10T00:33:27.073Z,7.20
2019-04-10T00:35:56.737Z,7.30
2019-04-10T00:38:26.100Z,7.20
2019-04-10T00:40:55.443Z,7.10
2019-04-10T00:43:24.607Z,7.10
2019-04-10T00:45:53.658Z,7.10
2019-04-10T00:48:23.841Z,7.20
2019-04-10T00:50:53.032Z,7.20
2019-04-10T00:53:21.691Z,7.50
2019-04-10T00:55:50.469Z,7.70
2019-04-10T00:58:20.324Z,7.70
2019-04-10T01:00:50.327Z,7.70
2019-04-10T01:03:38.100Z,7.60
2019-04-10T01:06:08.071Z,7.60
2019-04-10T01:08:37.079Z,7.60
2019-04-10T01:11:06.618Z,7.60
2019-04-10T01:13:35.487Z,7.60
2019-04-10T01:16:05.169Z,7.70
2019-04-10T01:18:33.902Z,7.80
2019-04-10T01:21:02.566Z,7.90
2019-04-10T01:23:31.418Z,8.00
2019-04-10T01:26:01.028Z,8.00
2019-04-10T01:28:29.813Z,8.10
2019-04-10T01:30:59.896Z,8.00
2019-04-10T01:33:28.549Z,8.00
2019-04-10T01:35:58.466Z,8.00
2019-04-10T01:38:27.363Z,8.00
2019-04-10T01:40:56.251Z,8.00
2019-04-10T01:43:25.049Z,8.10
2019-04-10T01:45:53.938Z,8.10
2019-04-10T01:48:22.636Z,8.10
2019-04-10T01:50:52.883Z,8.00
2019-04-10T01:53:21.866Z,8.00
2019-04-10T01:55:51.361Z,8.00
2019-04-10T01:58:21.848Z,7.90
2019-04-10T02:00:54.230Z,7.90
2019-04-10T02:03:22.980Z,8.00
2019-04-10T02:05:52.561Z,8.00
2019-04-10T02:08:21.533Z,8.00
2019-04-10T02:10:50.464Z,8.00
2019-04-10T02:13:19.476Z,7.90
2019-04-10T02:15:48.337Z,7.90
2019-04-10T02:18:17.293Z,7.90
2019-04-10T02:20:47.281Z,7.90
2019-04-10T02:23:16.351Z,7.80
2019-04-10T02:25:45.222Z,7.70
2019-04-10T02:28:13.869Z,7.60
2019-04-10T02:30:43.737Z,7.50
2019-04-10T02:33:13.956Z,7.50
2019-04-10T02:35:43.534Z,7.60
2019-04-10T02:38:30.679Z,7.60
2019-04-10T02:40:43.394Z,7.50
2019-04-10T02:43:13.895Z,7.50
2019-04-10T02:45:44.469Z,7.40
2019-04-10T02:48:13.003Z,7.30
2019-04-10T02:50:43.018Z,7.30
2019-04-10T02:53:13.114Z,7.40
2019-04-10T02:55:43.181Z,7.30
2019-04-10T02:58:12.216Z,7.20
2019-04-10T03:00:42.123Z,7.20
2019-04-10T03:03:12.003Z,7.20
2019-04-10T03:05:42.563Z,7.10
2019-04-10T03:08:13.057Z,7.10
2019-04-10T03:10:48.647Z,6.90
2019-04-10T03:13:13.686Z,6.50
2019-04-10T03:15:43.427Z,6.40
2019-04-10T03:18:12.700Z,6.10
2019-04-10T03:20:42.632Z,5.80
2019-04-10T03:23:11.588Z,5.70
2019-04-10T03:25:43.267Z,5.60
2019-04-10T03:28:11.176Z,5.60
2019-04-10T03:30:41.534Z,5.60
2019-04-10T03:33:21.826Z,5.50
2019-04-10T03:35:53.254Z,5.30
2019-04-10T03:38:21.977Z,5.10
2019-04-10T03:40:51.432Z,5.00
2019-04-10T03:43:20.227Z,5.00
2019-04-10T03:45:48.858Z,4.90
2019-04-10T03:48:17.456Z,4.90
2019-04-10T03:50:46.521Z,4.80
2019-04-10T03:53:16.035Z,4.80
2019-04-10T03:55:45.262Z,4.80
2019-04-10T03:58:14.177Z,4.70
2019-04-10T04:00:42.986Z,4.70
2019-04-10T04:03:12.763Z,4.60
2019-04-10T04:05:42.558Z,4.50
2019-04-10T04:08:11.415Z,4.40
2019-04-10T04:10:40.642Z,4.40
2019-04-10T04:13:09.329Z,4.60
2019-04-10T04:15:38.347Z,4.60
2019-04-10T04:18:07.093Z,4.70
2019-04-10T04:20:36.924Z,4.70
2019-04-10T04:23:06.148Z,4.80
2019-04-10T04:25:34.979Z,4.70
2019-04-10T04:28:04.626Z,4.80
2019-04-10T04:30:34.088Z,4.80
2019-04-10T04:33:02.917Z,4.80
2019-04-10T04:35:31.771Z,4.80
2019-04-10T04:38:00.634Z,4.80
2019-04-10T04:40:30.037Z,4.80
2019-04-10T04:42:58.818Z,4.70
2019-04-10T04:45:27.822Z,4.60
2019-04-10T04:47:57.605Z,4.50
2019-04-10T04:50:27.064Z,4.40
2019-04-10T04:52:56.012Z,4.30
2019-04-10T04:55:24.809Z,4.40
2019-04-10T04:57:53.584Z,4.30
2019-04-10T05:00:22.326Z,4.40
2019-04-10T05:02:51.501Z,4.40
2019-04-10T05:05:20.492Z,4.40
2019-04-10T05:07:57.386Z,4.40
2019-04-10T05:10:20.809Z,4.40
2019-04-10T05:12:50.028Z,4.40
2019-04-10T05:15:18.707Z,4.40
2019-04-10T05:17:47.619Z,4.40
2019-04-10T05:20:17.007Z,4.40
2019-04-10T05:22:46.212Z,4.40
2019-04-10T05:25:15.170Z,4.50
2019-04-10T05:27:44.006Z,4.60
2019-04-10T05:30:13.248Z,4.70
2019-04-10T05:32:41.979Z,4.80
2019-04-10T05:35:11.587Z,5.10
2019-04-10T05:37:40.404Z,5.30
2019-04-10T05:40:09.858Z,5.40
2019-04-10T05:42:39.511Z,5.50
2019-04-10T05:45:09.209Z,5.70
2019-04-10T05:47:38.809Z,6.20
2019-04-10T05:50:07.856Z,6.70
2019-04-10T05:52:37.475Z,7.20
2019-04-10T05:55:06.693Z,7.70
2019-04-10T05:57:35.474Z,8.20
2019-04-10T06:00:08.300Z,8.50
2019-04-10T06:02:37.151Z,8.90
2019-04-10T06:05:07.947Z,9.40
2019-04-10T06:07:37.116Z,9.60
2019-04-10T06:10:10.754Z,9.90
2019-04-10T06:12:40.054Z,9.90
2019-04-10T06:15:08.978Z,10.40
2019-04-10T06:17:38.604Z,10.80
2019-04-10T06:20:09.047Z,11.00
2019-04-10T06:22:38.880Z,10.80
2019-04-10T06:25:09.209Z,10.60
2019-04-10T06:27:38.885Z,10.20
2019-04-10T06:30:08.511Z,10.00
2019-04-10T06:32:37.751Z,9.80
2019-04-10T06:35:08.087Z,10.00
2019-04-10T06:37:37.980Z,10.20
2019-04-10T06:40:14.309Z,9.90
2019-04-10T06:42:46.172Z,9.50
2019-04-10T06:45:09.441Z,9.10
2019-04-10T06:47:38.357Z,8.80
2019-04-10T06:50:08.259Z,8.70
2019-04-10T06:52:37.119Z,8.70
2019-04-10T06:55:09.165Z,8.80
2019-04-10T06:57:46.849Z,8.90
2019-04-10T07:00:13.652Z,9.00
2019-04-10T07:02:42.259Z,8.90
2019-04-10T07:05:12.402Z,8.70
2019-04-10T07:07:50.848Z,8.70
2019-04-10T07:10:22.618Z,8.80
2019-04-10T07:12:43.869Z,8.80
2019-04-10T07:15:13.316Z,9.00
2019-04-10T07:17:43.250Z,8.90
2019-04-10T07:20:15.388Z,8.80
2019-04-10T07:22:46.470Z,8.90
2019-04-10T07:25:14.615Z,8.80
2019-04-10T07:27:44.416Z,8.90
2019-04-10T07:30:13.974Z,8.90
2019-04-10T07:32:46.465Z,9.00
2019-04-10T07:35:16.784Z,9.00
2019-04-10T07:37:44.524Z,9.10
2019-04-10T07:40:14.323Z,9.10
2019-04-10T07:42:43.441Z,9.30
2019-04-10T07:45:12.659Z,9.60
2019-04-10T07:47:42.041Z,9.70
2019-04-10T07:50:12.198Z,9.80
2019-04-10T07:52:41.405Z,9.80
2019-04-10T07:55:10.857Z,10.00
2019-04-10T07:57:40.612Z,10.40
2019-04-10T08:00:11.844Z,10.60
2019-04-10T08:02:40.653Z,11.00
2019-04-10T08:05:10.186Z,11.10
2019-04-10T08:07:40.432Z,11.20
2019-04-10T08:10:10.133Z,11.30
2019-04-10T08:12:45.996Z,11.30
2019-04-10T08:15:11.251Z,11.30
2019-04-10T08:17:40.992Z,11.40
2019-04-10T08:20:10.347Z,11.60
2019-04-10T08:22:39.385Z,11.70
2019-04-10T08:25:08.928Z,11.40
2019-04-10T08:27:38.554Z,11.60
2019-04-10T08:30:10.853Z,11.50
2019-04-10T08:32:51.674Z,11.90
2019-04-10T08:35:09.358Z,11.90
2019-04-10T08:37:39.115Z,12.10
2019-04-10T08:40:09.624Z,12.20
2019-04-10T08:42:40.188Z,12.40
2019-04-10T08:45:09.511Z,12.70
2019-04-10T08:47:38.285Z,11.90
2019-04-10T08:50:07.934Z,12.00
2019-04-10T08:52:37.096Z,11.70
2019-04-10T08:55:06.409Z,11.40
2019-04-10T08:57:36.134Z,11.70
2019-04-10T09:00:08.011Z,11.90
2019-04-10T09:02:38.000Z,11.80
2019-04-10T09:05:09.195Z,12.20
2019-04-10T09:07:38.357Z,12.50
2019-04-10T09:10:07.791Z,12.20
2019-04-10T09:12:36.849Z,12.40
2019-04-10T09:15:07.820Z,12.60
2019-04-10T09:17:37.707Z,12.80
2019-04-10T09:20:08.813Z,12.80
2019-04-10T09:23:05.574Z,12.70
2019-04-10T09:25:09.243Z,13.00
2019-04-10T09:27:38.182Z,13.10
2019-04-10T09:30:08.856Z,12.70
2019-04-10T09:32:39.582Z,13.00
2019-04-10T09:35:09.089Z,13.10
2019-04-10T09:37:38.076Z,13.30
2019-04-10T09:40:09.834Z,13.40
2019-04-10T09:42:39.587Z,13.60
2019-04-10T09:45:09.329Z,13.60
2019-04-10T09:47:38.105Z,13.40
2019-04-10T09:50:09.672Z,12.70
2019-04-10T09:52:39.513Z,12.90
2019-04-10T09:55:08.679Z,12.40
2019-04-10T09:57:37.711Z,12.10
2019-04-10T10:00:10.368Z,11.90
2019-04-10T10:02:39.937Z,12.20
2019-04-10T10:05:08.835Z,12.70
2019-04-10T10:07:37.581Z,13.20
2019-04-10T10:10:08.588Z,12.70
2019-04-10T10:12:38.678Z,12.10
2019-04-10T10:15:09.606Z,12.40
2019-04-10T10:17:39.209Z,12.60
2019-04-10T10:20:09.282Z,12.60
2019-04-10T10:22:39.054Z,12.50
2019-04-10T10:25:08.524Z,12.20
2019-04-10T10:27:38.318Z,12.00
2019-04-10T10:30:09.417Z,12.10
2019-04-10T10:32:39.284Z,11.90
2019-04-10T10:35:09.335Z,11.90
2019-04-10T10:37:38.890Z,12.20
2019-04-10T10:40:09.775Z,12.50
2019-04-10T10:42:40.993Z,12.40
2019-04-10T10:45:10.758Z,12.30
2019-04-10T10:47:40.465Z,11.80
2019-04-10T10:50:10.894Z,11.80
2019-04-10T10:52:41.732Z,11.80
2019-04-10T10:55:11.648Z,11.60
2019-04-10T10:57:41.553Z,11.50
2019-04-10T11:00:13.223Z,11.40
2019-04-10T11:02:43.539Z,11.20
2019-04-10T11:05:12.893Z,11.40
2019-04-10T11:07:43.005Z,11.50
2019-04-10T11:10:12.694Z,11.20
2019-04-10T11:12:42.397Z,11.30
2019-04-10T11:15:12.326Z,11.60
2019-04-10T11:17:42.158Z,11.70
2019-04-10T11:20:15.263Z,11.60
2019-04-10T11:22:45.224Z,11.60
2019-04-10T11:25:15.696Z,11.50
2019-04-10T11:27:44.796Z,11.80
2019-04-10T11:30:14.322Z,12.10
2019-04-10T11:32:44.436Z,12.20
2019-04-10T11:35:15.462Z,12.20
2019-04-10T11:40:17.925Z,12.30
2019-04-10T11:42:46.927Z,12.10
2019-04-10T11:45:17.028Z,12.00
2019-04-10T11:47:47.554Z,12.20
2019-04-10T11:50:18.667Z,12.50
2019-04-10T11:52:52.423Z,12.50
2019-04-10T11:55:21.349Z,12.40
2019-04-10T11:57:51.265Z,12.20
2019-04-10T12:00:23.723Z,12.30
2019-04-10T12:02:53.551Z,12.40
2019-04-10T12:05:25.428Z,12.30
2019-04-10T12:08:18.170Z,12.60
2019-04-10T12:12:57.577Z,12.50
2019-04-10T12:15:26.449Z,12.40
2019-04-10T12:17:55.481Z,12.30
2019-04-10T12:20:24.974Z,12.30
2019-04-10T12:22:54.581Z,12.50
2019-04-10T12:25:23.656Z,12.70
2019-04-10T12:27:53.504Z,12.80
2019-04-10T12:30:23.508Z,12.70
2019-04-10T12:32:52.624Z,12.70
2019-04-10T12:35:22.620Z,12.40
2019-04-10T12:38:01.454Z,12.20
2019-04-10T12:40:22.530Z,12.20
2019-04-10T12:42:52.420Z,12.30
2019-04-10T12:45:22.232Z,12.00
2019-04-10T12:47:59.614Z,11.90
2019-04-10T12:50:34.685Z,12.20
2019-04-10T12:53:03.321Z,12.30
2019-04-10T12:55:32.539Z,12.40
2019-04-10T12:58:08.607Z,12.40
2019-04-10T13:00:32.057Z,12.00
2019-04-10T13:03:00.861Z,12.20
2019-04-10T13:05:29.657Z,12.40
2019-04-10T13:08:06.401Z,12.10
2019-04-10T13:10:29.492Z,12.20
2019-04-10T13:12:59.770Z,12.10
2019-04-10T13:15:31.761Z,12.10
2019-04-10T13:18:00.267Z,12.20
2019-04-10T13:20:29.476Z,12.20
2019-04-10T13:22:58.412Z,12.10
2019-04-10T13:25:30.397Z,12.10
2019-04-10T13:27:59.499Z,12.00
2019-04-10T13:30:39.577Z,12.00
2019-04-10T13:32:59.021Z,12.10
2019-04-10T13:35:28.420Z,12.10
2019-04-10T13:37:57.495Z,12.20
2019-04-10T13:40:26.410Z,12.40
2019-04-10T13:42:55.723Z,12.50
2019-04-10T13:45:24.812Z,12.40
2019-04-10T13:47:54.620Z,12.30
2019-04-10T13:50:24.357Z,12.40
2019-04-10T13:52:56.107Z,12.10
2019-04-10T13:55:26.295Z,12.10
2019-04-10T13:57:57.116Z,12.30
2019-04-10T14:00:40.525Z,12.30
2019-04-10T14:03:10.404Z,12.50
2019-04-10T14:05:41.269Z,12.50
2019-04-10T14:08:10.431Z,12.50
2019-04-10T14:10:41.350Z,12.80
2019-04-10T14:13:10.053Z,12.70
2019-04-10T14:15:39.994Z,12.90
2019-04-10T14:18:10.252Z,12.90
2019-04-10T14:20:39.495Z,12.60
2019-04-10T14:23:12.800Z,12.80
2019-04-10T14:25:56.516Z,12.80
2019-04-10T14:28:27.176Z,12.70
2019-04-10T14:30:57.828Z,12.70
2019-04-10T14:33:28.259Z,12.50
2019-04-10T14:35:57.827Z,12.60
2019-04-10T14:38:28.281Z,12.40
2019-04-10T14:40:57.741Z,12.40
2019-04-10T14:43:26.877Z,12.40
2019-04-10T14:45:57.640Z,12.60
2019-04-10T14:48:27.818Z,12.70
2019-04-10T14:50:57.680Z,12.80
2019-04-10T14:53:26.949Z,12.70
2019-04-10T14:55:59.799Z,12.80
2019-04-10T14:58:30.844Z,12.80
2019-04-10T15:00:59.828Z,12.80
2019-04-10T15:03:28.864Z,12.70
2019-04-10T15:05:59.813Z,12.70
2019-04-10T15:08:28.793Z,12.80
2019-04-10T15:10:58.250Z,12.90
2019-04-10T15:13:27.305Z,12.70
2019-04-10T15:15:56.721Z,12.70
2019-04-10T15:18:26.757Z,12.80
2019-04-10T15:20:56.620Z,12.60
2019-04-10T15:23:25.754Z,12.30
2019-04-10T15:25:55.495Z,12.20
2019-04-10T15:28:25.397Z,12.20
2019-04-10T15:30:55.039Z,12.20
2019-04-10T15:33:24.641Z,12.30
2019-04-10T15:35:55.365Z,12.40
2019-04-10T15:38:24.630Z,12.40
2019-04-10T15:40:54.588Z,12.20
2019-04-10T15:43:24.911Z,12.20
2019-04-10T15:45:54.597Z,12.20
2019-04-10T15:48:23.666Z,12.30
2019-04-10T15:50:53.799Z,12.30
2019-04-10T15:53:22.774Z,12.30
2019-04-10T15:55:51.802Z,12.30
2019-04-10T15:58:21.522Z,12.20
2019-04-10T16:00:51.684Z,12.10
2019-04-10T16:03:21.824Z,12.10
2019-04-10T16:05:51.035Z,12.00
2019-04-10T16:08:20.940Z,12.10
2019-04-10T16:10:55.042Z,12.10
2019-04-10T16:13:32.469Z,12.10
2019-04-10T16:16:03.130Z,12.00
2019-04-10T16:18:32.537Z,12.00
2019-04-10T16:21:02.147Z,12.00
2019-04-10T16:23:42.117Z,12.00
2019-04-10T16:26:11.743Z,11.90
2019-04-10T16:28:40.658Z,11.90
2019-04-10T16:31:09.534Z,11.80
2019-04-10T16:33:39.787Z,11.80
2019-04-10T16:36:08.867Z,11.80
2019-04-10T16:38:38.550Z,11.80
2019-04-10T16:41:08.230Z,11.80
2019-04-10T16:43:38.278Z,11.70
2019-04-10T16:46:07.508Z,11.60
2019-04-10T16:48:36.401Z,11.60
2019-04-10T16:51:25.995Z,11.60
2019-04-10T16:53:55.850Z,11.50
2019-04-10T16:56:25.447Z,11.50
2019-04-10T16:58:54.457Z,11.40
2019-04-10T17:01:23.319Z,11.40
2019-04-10T17:03:52.397Z,11.40
2019-04-10T17:06:21.891Z,11.30
2019-04-10T17:08:52.221Z,11.30
2019-04-10T17:11:21.417Z,11.20
2019-04-10T17:13:50.907Z,11.20
2019-04-10T17:16:20.219Z,11.10
2019-04-10T17:18:49.623Z,11.10
2019-04-10T17:21:19.915Z,11.00
2019-04-10T17:23:49.138Z,10.90
2019-04-10T17:26:19.052Z,10.80
2019-04-10T17:28:48.403Z,10.80
2019-04-10T17:31:18.226Z,10.60
2019-04-10T17:33:47.587Z,10.50
2019-04-10T17:36:17.005Z,10.40
2019-04-10T17:38:46.809Z,10.30
2019-04-10T17:41:17.559Z,10.20
2019-04-10T17:43:47.470Z,10.10
2019-04-10T17:46:17.364Z,10.00
2019-04-10T17:48:46.445Z,9.90
2019-04-10T17:51:15.261Z,9.70
2019-04-10T17:53:45.371Z,9.60
2019-04-10T17:56:15.815Z,9.60
2019-04-10T17:58:45.617Z,9.50
2019-04-10T18:01:16.713Z,9.30
2019-04-10T18:03:51.787Z,9.20
2019-04-10T18:06:17.329Z,9.20
2019-04-10T18:08:47.238Z,9.10
2019-04-10T18:11:18.256Z,9.10
2019-04-10T18:13:49.162Z,8.90
2019-04-10T18:16:18.007Z,8.70
2019-04-10T18:18:48.270Z,8.60
2019-04-10T18:21:17.829Z,8.60
2019-04-10T18:23:47.377Z,8.50
2019-04-10T18:26:19.174Z,8.50
2019-04-10T18:28:46.927Z,8.60
2019-04-10T18:31:16.654Z,8.60
2019-04-10T18:33:46.846Z,8.60
2019-04-10T18:36:15.918Z,8.50
2019-04-10T18:38:45.870Z,8.40
2019-04-10T18:41:15.747Z,8.40
2019-04-10T18:43:46.626Z,8.40
2019-04-10T18:46:19.076Z,8.30
2019-04-10T18:48:47.169Z,8.20
2019-04-10T18:51:18.062Z,8.10
2019-04-10T18:53:49.114Z,8.00
2019-04-10T18:56:18.839Z,8.00
2019-04-10T18:58:52.108Z,7.90
2019-04-10T19:01:40.654Z,7.80
2019-04-10T19:04:16.588Z,7.70
2019-04-10T19:06:47.245Z,7.70
2019-04-10T19:09:24.381Z,7.60
2019-04-10T19:11:48.712Z,7.50
2019-04-10T19:14:18.426Z,7.40
2019-04-10T19:16:48.030Z,7.30
2019-04-10T19:19:18.407Z,7.10
2019-04-10T19:21:48.431Z,6.90
2019-04-10T19:24:18.182Z,6.80
2019-04-10T19:26:47.417Z,6.80
2019-04-10T19:29:17.133Z,6.70
2019-04-10T19:31:47.833Z,6.70
2019-04-10T19:34:17.007Z,6.70
2019-04-10T19:36:46.050Z,6.70
2019-04-10T19:39:16.005Z,6.60
2019-04-10T19:41:45.037Z,6.50
2019-04-10T19:44:14.980Z,6.40
2019-04-10T19:46:44.052Z,6.30
2019-04-10T19:49:14.190Z,6.20
2019-04-10T19:51:43.273Z,5.80
2019-04-10T19:54:12.165Z,5.60
2019-04-10T19:56:42.434Z,5.50
2019-04-10T19:59:11.582Z,5.50
2019-04-10T20:01:40.988Z,5.50
2019-04-10T20:04:10.413Z,5.40
2019-04-10T20:06:40.477Z,5.10
2019-04-10T20:09:10.513Z,4.90
2019-04-10T20:11:44.876Z,4.80
2019-04-10T20:14:10.572Z,4.60
2019-04-10T20:16:39.606Z,4.50
2019-04-10T20:19:09.528Z,4.70
2019-04-10T20:21:39.738Z,4.70
2019-04-10T20:24:10.297Z,4.60
2019-04-10T20:26:39.379Z,4.40
2019-04-10T20:29:08.232Z,4.20
2019-04-10T20:31:39.468Z,4.10
2019-04-10T20:34:09.511Z,3.90
2019-04-10T20:36:39.997Z,3.80
2019-04-10T20:39:12.745Z,3.80
2019-04-10T20:41:49.899Z,3.90
2019-04-10T20:44:12.739Z,4.00
2019-04-10T20:46:42.371Z,4.10
2019-04-10T20:49:12.121Z,4.20
2019-04-10T20:51:42.004Z,4.20
2019-04-10T20:54:10.963Z,4.10
2019-04-10T20:56:40.971Z,4.00
2019-04-10T20:59:10.181Z,3.80
2019-04-10T21:01:39.345Z,3.50
2019-04-10T21:04:09.447Z,3.50
2019-04-10T21:06:41.664Z,3.50
2019-04-10T21:09:09.871Z,3.30
2019-04-10T21:11:39.855Z,3.20
2019-04-10T21:14:09.267Z,3.10
2019-04-10T21:16:38.672Z,3.10
2019-04-10T21:19:09.423Z,3.00
2019-04-10T21:21:39.083Z,2.90
2019-04-10T21:24:09.167Z,2.80
2019-04-10T21:26:38.797Z,2.80
2019-04-10T21:29:10.994Z,2.70
2019-04-10T21:31:48.336Z,2.50
2019-04-10T21:34:19.718Z,2.50
2019-04-10T21:36:49.019Z,2.30
2019-04-10T21:39:19.062Z,2.20
2019-04-10T21:41:48.878Z,2.00
2019-04-10T21:44:18.294Z,1.90
2019-04-10T21:46:48.410Z,1.90
2019-04-10T21:49:17.709Z,1.80
2019-04-10T21:51:46.917Z,1.70
2019-04-10T21:54:15.806Z,1.50
2019-04-10T21:56:45.089Z,1.40
2019-04-10T21:59:16.350Z,1.20
2019-04-10T22:01:46.555Z,1.20
2019-04-10T22:04:16.750Z,1.10
2019-04-10T22:06:47.340Z,1.00
2019-04-10T22:09:20.882Z,1.00
2019-04-10T22:11:51.567Z,1.00
2019-04-10T22:14:21.468Z,1.00
2019-04-10T22:16:50.683Z,1.00
2019-04-10T22:19:21.019Z,1.00
2019-04-10T22:21:50.229Z,0.80
2019-04-10T22:24:19.407Z,0.80
2019-04-10T22:26:48.608Z,0.80
2019-04-10T22:29:17.783Z,0.80
2019-04-10T22:31:49.228Z,1.00
2019-04-10T22:34:17.738Z,1.10
2019-04-10T22:36:47.175Z,1.20
2019-04-10T22:39:16.953Z,1.20
2019-04-10T22:41:46.202Z,1.40
2019-04-10T22:44:15.454Z,1.30
2019-04-10T22:46:44.624Z,1.30
2019-04-10T22:49:14.570Z,1.10
2019-04-10T22:51:43.993Z,1.00
2019-04-10T22:54:14.445Z,0.90
2019-04-10T22:56:43.703Z,0.70
2019-04-10T22:59:13.584Z,0.40
2019-04-10T23:01:43.297Z,0.30
2019-04-10T23:04:12.346Z,0.30
2019-04-10T23:06:41.625Z,0.30
2019-04-10T23:09:12.241Z,0.30
2019-04-10T23:11:43.503Z,0.20
2019-04-10T23:14:12.319Z,0.30
2019-04-10T23:16:41.366Z,0.30
2019-04-10T23:19:10.491Z,0.20
2019-04-10T23:21:39.488Z,0.10
2019-04-10T23:24:09.479Z,0.10
2019-04-10T23:26:39.530Z,0.20
2019-04-10T23:29:08.823Z,0.20
2019-04-10T23:31:37.697Z,0.30
2019-04-10T23:34:06.605Z,0.30
2019-04-10T23:36:35.503Z,0.30
2019-04-10T23:39:06.350Z,0.30
2019-04-10T23:41:35.789Z,0.30
2019-04-10T23:44:05.045Z,0.40
2019-04-10T23:46:34.686Z,0.40
2019-04-10T23:49:03.995Z,0.20
2019-04-10T23:51:33.355Z,0.20
2019-04-10T23:54:02.817Z,0.10
2019-04-10T23:56:32.162Z,-0.10
2019-04-10T23:59:01.031Z,-0.10
